Ocean Falls, Canada
Current Conditions -  °F | °C
As of 4:00 PM on Friday 21 Nov 2014 (Local Time) from CYZT Reporting Station
Broken Clouds Broken Clouds  
Wind Chill: 44°   Ceiling: 4700
Heat Index: 46°   Visibility: 20mi
Dew Point: 45°   Wind: 6mph
Humidity: 93%   Direction: 200°SSW
Pressure: 29.3"   Gusts: NA
Location:  52.35°N, 127.7°W
Report Text: CYZT 220000Z 20005KT 20SM FEW022 BKN047 BKN071 08/07 A2930 RMK SC1SC4AC2 SLP923
Loading
Personal Weather Stations






























Interactive Weather Map New forecast layout! Learn more

10-Day Weather Forecast

Advertisements
Track Severe Weather on mobile